sensor_id;sensor_type;location;lat;lon;timestamp;temperature;humidity
42743;DHT22;28397;44.552;-0.848;2022-12-20T00:00:45;12.10;99.90
42743;DHT22;28397;44.552;-0.848;2022-12-20T00:03:11;12.20;99.90
42743;DHT22;28397;44.552;-0.848;2022-12-20T00:05:38;12.20;99.90
42743;DHT22;28397;44.552;-0.848;2022-12-20T00:08:05;12.20;99.90
42743;DHT22;28397;44.552;-0.848;2022-12-20T00:10:38;12.20;99.90
42743;DHT22;28397;44.552;-0.848;2022-12-20T00:13:04;12.30;99.90
42743;DHT22;28397;44.552;-0.848;2022-12-20T00:15:30;12.20;99.90
42743;DHT22;28397;44.552;-0.848;2022-12-20T00:17:56;12.20;99.90
42743;DHT22;28397;44.552;-0.848;2022-12-20T00:20:22;12.20;99.90
42743;DHT22;28397;44.552;-0.848;2022-12-20T00:22:48;12.30;99.90
42743;DHT22;28397;44.552;-0.848;2022-12-20T00:25:14;12.30;99.90
42743;DHT22;28397;44.552;-0.848;2022-12-20T00:27:39;12.30;99.90
42743;DHT22;28397;44.552;-0.848;2022-12-20T00:30:06;12.30;99.90
42743;DHT22;28397;44.552;-0.848;2022-12-20T00:32:32;12.30;99.90
42743;DHT22;28397;44.552;-0.848;2022-12-20T00:34:57;12.30;99.90
42743;DHT22;28397;44.552;-0.848;2022-12-20T00:37:23;12.30;99.90
42743;DHT22;28397;44.552;-0.848;2022-12-20T00:39:49;12.30;99.90
42743;DHT22;28397;44.552;-0.848;2022-12-20T00:42:14;12.30;99.90
42743;DHT22;28397;44.552;-0.848;2022-12-20T00:44:40;12.30;99.90
42743;DHT22;28397;44.552;-0.848;2022-12-20T00:47:06;12.30;99.90
42743;DHT22;28397;44.552;-0.848;2022-12-20T00:49:32;12.20;99.90
42743;DHT22;28397;44.552;-0.848;2022-12-20T00:51:57;12.20;99.90
42743;DHT22;28397;44.552;-0.848;2022-12-20T00:54:23;12.20;99.90
42743;DHT22;28397;44.552;-0.848;2022-12-20T00:56:49;12.10;99.90
42743;DHT22;28397;44.552;-0.848;2022-12-20T00:59:15;12.00;99.90
42743;DHT22;28397;44.552;-0.848;2022-12-20T01:01:40;12.00;99.90
42743;DHT22;28397;44.552;-0.848;2022-12-20T01:04:06;12.00;99.90
42743;DHT22;28397;44.552;-0.848;2022-12-20T01:06:32;11.90;99.90
42743;DHT22;28397;44.552;-0.848;2022-12-20T01:08:59;12.00;99.90
42743;DHT22;28397;44.552;-0.848;2022-12-20T01:11:31;11.90;99.90
42743;DHT22;28397;44.552;-0.848;2022-12-20T01:14:00;11.90;99.90
42743;DHT22;28397;44.552;-0.848;2022-12-20T01:16:35;12.00;99.90
42743;DHT22;28397;44.552;-0.848;2022-12-20T01:19:02;12.00;99.90
42743;DHT22;28397;44.552;-0.848;2022-12-20T01:21:28;12.00;99.90
42743;DHT22;28397;44.552;-0.848;2022-12-20T01:23:54;11.90;99.90
42743;DHT22;28397;44.552;-0.848;2022-12-20T01:26:24;11.80;99.90
42743;DHT22;28397;44.552;-0.848;2022-12-20T01:28:52;11.90;99.90
42743;DHT22;28397;44.552;-0.848;2022-12-20T01:31:20;11.90;99.90
42743;DHT22;28397;44.552;-0.848;2022-12-20T01:33:49;11.90;99.90
42743;DHT22;28397;44.552;-0.848;2022-12-20T01:36:17;11.90;99.90
42743;DHT22;28397;44.552;-0.848;2022-12-20T01:38:44;12.00;99.90
42743;DHT22;28397;44.552;-0.848;2022-12-20T01:41:21;12.00;99.90
42743;DHT22;28397;44.552;-0.848;2022-12-20T01:44:02;12.00;99.90
42743;DHT22;28397;44.552;-0.848;2022-12-20T01:46:31;12.00;99.90
42743;DHT22;28397;44.552;-0.848;2022-12-20T01:51:27;11.80;99.90
42743;DHT22;28397;44.552;-0.848;2022-12-20T01:54:13;11.70;99.90
42743;DHT22;28397;44.552;-0.848;2022-12-20T01:56:42;11.70;99.90
42743;DHT22;28397;44.552;-0.848;2022-12-20T01:59:10;11.70;99.90
42743;DHT22;28397;44.552;-0.848;2022-12-20T02:01:36;11.50;99.90
42743;DHT22;28397;44.552;-0.848;2022-12-20T02:04:02;11.60;99.90
42743;DHT22;28397;44.552;-0.848;2022-12-20T02:06:28;11.50;99.90
42743;DHT22;28397;44.552;-0.848;2022-12-20T02:08:57;11.60;99.90
42743;DHT22;28397;44.552;-0.848;2022-12-20T02:22:28;11.40;99.90
42743;DHT22;28397;44.552;-0.848;2022-12-20T02:28:09;11.40;99.90
42743;DHT22;28397;44.552;-0.848;2022-12-20T02:30:43;11.40;99.90
42743;DHT22;28397;44.552;-0.848;2022-12-20T02:33:11;11.40;99.90
42743;DHT22;28397;44.552;-0.848;2022-12-20T02:35:38;11.50;99.90
42743;DHT22;28397;44.552;-0.848;2022-12-20T02:40:58;11.50;99.90
42743;DHT22;28397;44.552;-0.848;2022-12-20T02:43:27;11.60;99.90
42743;DHT22;28397;44.552;-0.848;2022-12-20T02:46:13;11.60;99.90
42743;DHT22;28397;44.552;-0.848;2022-12-20T02:48:40;11.60;99.90
42743;DHT22;28397;44.552;-0.848;2022-12-20T02:51:08;11.60;99.90
42743;DHT22;28397;44.552;-0.848;2022-12-20T02:53:35;11.60;99.90
42743;DHT22;28397;44.552;-0.848;2022-12-20T02:56:55;11.60;99.90
42743;DHT22;28397;44.552;-0.848;2022-12-20T02:59:08;11.70;99.90
42743;DHT22;28397;44.552;-0.848;2022-12-20T03:01:39;11.60;99.90
42743;DHT22;28397;44.552;-0.848;2022-12-20T03:04:05;11.70;99.90
42743;DHT22;28397;44.552;-0.848;2022-12-20T03:06:32;11.70;99.90
42743;DHT22;28397;44.552;-0.848;2022-12-20T03:08:58;11.70;99.90
42743;DHT22;28397;44.552;-0.848;2022-12-20T03:11:24;11.80;99.90
42743;DHT22;28397;44.552;-0.848;2022-12-20T03:13:50;11.80;99.90
42743;DHT22;28397;44.552;-0.848;2022-12-20T03:16:16;11.70;99.90
42743;DHT22;28397;44.552;-0.848;2022-12-20T03:18:41;11.70;99.90
42743;DHT22;28397;44.552;-0.848;2022-12-20T03:21:07;11.70;99.90
42743;DHT22;28397;44.552;-0.848;2022-12-20T03:23:33;11.70;99.90
42743;DHT22;28397;44.552;-0.848;2022-12-20T03:25:58;11.80;99.90
42743;DHT22;28397;44.552;-0.848;2022-12-20T03:28:24;11.70;99.90
42743;DHT22;28397;44.552;-0.848;2022-12-20T03:30:50;11.70;99.90
42743;DHT22;28397;44.552;-0.848;2022-12-20T03:33:16;11.60;99.90
42743;DHT22;28397;44.552;-0.848;2022-12-20T03:35:41;11.70;99.90
42743;DHT22;28397;44.552;-0.848;2022-12-20T03:38:07;11.60;99.90
42743;DHT22;28397;44.552;-0.848;2022-12-20T03:40:33;11.60;99.90
42743;DHT22;28397;44.552;-0.848;2022-12-20T03:42:58;11.60;99.90
42743;DHT22;28397;44.552;-0.848;2022-12-20T03:45:24;11.70;99.90
42743;DHT22;28397;44.552;-0.848;2022-12-20T03:47:50;11.70;99.90
42743;DHT22;28397;44.552;-0.848;2022-12-20T03:50:16;11.60;99.90
42743;DHT22;28397;44.552;-0.848;2022-12-20T03:52:41;11.60;99.90
42743;DHT22;28397;44.552;-0.848;2022-12-20T03:55:08;11.60;99.90
42743;DHT22;28397;44.552;-0.848;2022-12-20T03:57:34;11.60;99.90
42743;DHT22;28397;44.552;-0.848;2022-12-20T04:00:00;11.70;99.90
42743;DHT22;28397;44.552;-0.848;2022-12-20T04:02:26;11.80;99.90
42743;DHT22;28397;44.552;-0.848;2022-12-20T04:04:52;11.70;99.90
42743;DHT22;28397;44.552;-0.848;2022-12-20T04:07:18;11.70;99.90
42743;DHT22;28397;44.552;-0.848;2022-12-20T04:09:44;11.70;99.90
42743;DHT22;28397;44.552;-0.848;2022-12-20T04:12:09;11.80;99.90
42743;DHT22;28397;44.552;-0.848;2022-12-20T04:14:35;11.70;99.90
42743;DHT22;28397;44.552;-0.848;2022-12-20T04:17:02;11.80;99.90
42743;DHT22;28397;44.552;-0.848;2022-12-20T04:19:28;11.80;99.90
42743;DHT22;28397;44.552;-0.848;2022-12-20T04:21:54;11.70;99.90
42743;DHT22;28397;44.552;-0.848;2022-12-20T04:24:20;11.80;99.90
42743;DHT22;28397;44.552;-0.848;2022-12-20T04:26:46;11.80;99.90
42743;DHT22;28397;44.552;-0.848;2022-12-20T04:29:13;11.70;99.90
42743;DHT22;28397;44.552;-0.848;2022-12-20T04:31:39;11.70;99.90
42743;DHT22;28397;44.552;-0.848;2022-12-20T04:34:05;11.70;99.90
42743;DHT22;28397;44.552;-0.848;2022-12-20T04:36:31;11.80;99.90
42743;DHT22;28397;44.552;-0.848;2022-12-20T04:38:56;11.70;99.90
42743;DHT22;28397;44.552;-0.848;2022-12-20T04:41:22;11.80;99.90
42743;DHT22;28397;44.552;-0.848;2022-12-20T04:43:49;11.80;99.90
42743;DHT22;28397;44.552;-0.848;2022-12-20T04:46:17;11.80;99.90
42743;DHT22;28397;44.552;-0.848;2022-12-20T04:48:43;11.80;99.90
42743;DHT22;28397;44.552;-0.848;2022-12-20T04:51:08;11.80;99.90
42743;DHT22;28397;44.552;-0.848;2022-12-20T04:53:34;11.80;99.90
42743;DHT22;28397;44.552;-0.848;2022-12-20T04:56:24;11.70;99.90
42743;DHT22;28397;44.552;-0.848;2022-12-20T04:58:51;11.80;99.90
42743;DHT22;28397;44.552;-0.848;2022-12-20T05:01:18;11.80;99.90
42743;DHT22;28397;44.552;-0.848;2022-12-20T05:03:44;11.80;99.90
42743;DHT22;28397;44.552;-0.848;2022-12-20T05:06:10;11.80;99.90
42743;DHT22;28397;44.552;-0.848;2022-12-20T05:08:36;11.80;99.90
42743;DHT22;28397;44.552;-0.848;2022-12-20T05:11:02;11.70;99.90
42743;DHT22;28397;44.552;-0.848;2022-12-20T05:13:28;11.80;99.90
42743;DHT22;28397;44.552;-0.848;2022-12-20T05:15:55;11.90;99.90
42743;DHT22;28397;44.552;-0.848;2022-12-20T05:18:21;11.80;99.90
42743;DHT22;28397;44.552;-0.848;2022-12-20T05:20:48;11.80;99.90
42743;DHT22;28397;44.552;-0.848;2022-12-20T05:23:33;11.80;99.90
42743;DHT22;28397;44.552;-0.848;2022-12-20T05:26:17;11.80;99.90
42743;DHT22;28397;44.552;-0.848;2022-12-20T05:28:43;11.90;99.90
42743;DHT22;28397;44.552;-0.848;2022-12-20T05:31:09;12.00;99.90
42743;DHT22;28397;44.552;-0.848;2022-12-20T05:33:35;12.10;99.90
42743;DHT22;28397;44.552;-0.848;2022-12-20T05:36:01;12.20;99.90
42743;DHT22;28397;44.552;-0.848;2022-12-20T05:38:27;12.20;99.90
42743;DHT22;28397;44.552;-0.848;2022-12-20T05:40:52;12.20;99.90
42743;DHT22;28397;44.552;-0.848;2022-12-20T05:43:19;12.10;99.90
42743;DHT22;28397;44.552;-0.848;2022-12-20T05:45:50;12.10;99.90
42743;DHT22;28397;44.552;-0.848;2022-12-20T05:48:17;12.00;99.90
42743;DHT22;28397;44.552;-0.848;2022-12-20T05:50:43;12.10;99.90
42743;DHT22;28397;44.552;-0.848;2022-12-20T05:53:13;12.10;99.90
42743;DHT22;28397;44.552;-0.848;2022-12-20T05:55:50;12.10;99.90
42743;DHT22;28397;44.552;-0.848;2022-12-20T05:58:16;12.00;99.90
42743;DHT22;28397;44.552;-0.848;2022-12-20T06:00:43;12.00;99.90
42743;DHT22;28397;44.552;-0.848;2022-12-20T06:03:09;12.10;99.90
42743;DHT22;28397;44.552;-0.848;2022-12-20T06:05:36;12.20;99.90
42743;DHT22;28397;44.552;-0.848;2022-12-20T06:08:04;12.10;99.90
42743;DHT22;28397;44.552;-0.848;2022-12-20T06:10:30;12.10;99.90
42743;DHT22;28397;44.552;-0.848;2022-12-20T06:12:56;12.10;99.90
42743;DHT22;28397;44.552;-0.848;2022-12-20T06:15:22;12.10;99.90
42743;DHT22;28397;44.552;-0.848;2022-12-20T06:17:47;12.20;99.90
42743;DHT22;28397;44.552;-0.848;2022-12-20T06:20:13;12.10;99.90
42743;DHT22;28397;44.552;-0.848;2022-12-20T06:22:39;12.10;99.90
42743;DHT22;28397;44.552;-0.848;2022-12-20T06:25:05;12.30;99.90
42743;DHT22;28397;44.552;-0.848;2022-12-20T06:27:34;12.20;99.90
42743;DHT22;28397;44.552;-0.848;2022-12-20T06:30:00;12.20;99.90
42743;DHT22;28397;44.552;-0.848;2022-12-20T06:32:26;12.20;99.90
42743;DHT22;28397;44.552;-0.848;2022-12-20T06:34:52;12.10;99.90
42743;DHT22;28397;44.552;-0.848;2022-12-20T06:37:17;12.10;99.90
42743;DHT22;28397;44.552;-0.848;2022-12-20T06:39:43;12.10;99.90
42743;DHT22;28397;44.552;-0.848;2022-12-20T06:42:09;12.10;99.90
42743;DHT22;28397;44.552;-0.848;2022-12-20T06:44:34;12.00;99.90
42743;DHT22;28397;44.552;-0.848;2022-12-20T06:47:01;11.90;99.90
42743;DHT22;28397;44.552;-0.848;2022-12-20T06:49:27;11.90;99.90
42743;DHT22;28397;44.552;-0.848;2022-12-20T06:51:52;11.80;99.90
42743;DHT22;28397;44.552;-0.848;2022-12-20T06:54:18;11.80;99.90
42743;DHT22;28397;44.552;-0.848;2022-12-20T06:56:44;11.70;99.90
42743;DHT22;28397;44.552;-0.848;2022-12-20T06:59:09;11.70;99.90
42743;DHT22;28397;44.552;-0.848;2022-12-20T07:01:35;11.80;99.90
42743;DHT22;28397;44.552;-0.848;2022-12-20T07:04:01;11.90;99.90
42743;DHT22;28397;44.552;-0.848;2022-12-20T07:06:27;11.90;99.90
42743;DHT22;28397;44.552;-0.848;2022-12-20T07:08:54;11.80;99.90
42743;DHT22;28397;44.552;-0.848;2022-12-20T07:11:20;11.80;99.90
42743;DHT22;28397;44.552;-0.848;2022-12-20T07:13:45;11.80;99.90
42743;DHT22;28397;44.552;-0.848;2022-12-20T07:16:11;11.70;99.90
42743;DHT22;28397;44.552;-0.848;2022-12-20T07:18:37;11.70;99.90
42743;DHT22;28397;44.552;-0.848;2022-12-20T07:21:04;11.80;99.90
42743;DHT22;28397;44.552;-0.848;2022-12-20T07:23:30;11.70;99.90
42743;DHT22;28397;44.552;-0.848;2022-12-20T07:25:58;11.70;99.90
42743;DHT22;28397;44.552;-0.848;2022-12-20T07:28:26;11.80;99.90
42743;DHT22;28397;44.552;-0.848;2022-12-20T07:30:52;11.80;99.90
42743;DHT22;28397;44.552;-0.848;2022-12-20T07:33:18;11.90;99.90
42743;DHT22;28397;44.552;-0.848;2022-12-20T07:35:44;12.00;99.90
42743;DHT22;28397;44.552;-0.848;2022-12-20T07:38:14;12.00;99.90
42743;DHT22;28397;44.552;-0.848;2022-12-20T07:40:40;12.00;99.90
42743;DHT22;28397;44.552;-0.848;2022-12-20T07:43:07;12.00;99.90
42743;DHT22;28397;44.552;-0.848;2022-12-20T07:45:33;11.90;99.90
42743;DHT22;28397;44.552;-0.848;2022-12-20T07:47:59;11.80;99.90
42743;DHT22;28397;44.552;-0.848;2022-12-20T07:50:26;11.80;99.90
42743;DHT22;28397;44.552;-0.848;2022-12-20T07:52:52;11.90;99.90
42743;DHT22;28397;44.552;-0.848;2022-12-20T07:55:19;12.00;99.90
42743;DHT22;28397;44.552;-0.848;2022-12-20T07:57:52;11.90;99.90
42743;DHT22;28397;44.552;-0.848;2022-12-20T08:00:20;12.00;99.90
42743;DHT22;28397;44.552;-0.848;2022-12-20T08:02:58;12.00;99.90
42743;DHT22;28397;44.552;-0.848;2022-12-20T08:05:25;12.20;99.90
42743;DHT22;28397;44.552;-0.848;2022-12-20T08:07:52;12.00;99.90
42743;DHT22;28397;44.552;-0.848;2022-12-20T08:10:19;12.10;99.90
42743;DHT22;28397;44.552;-0.848;2022-12-20T08:12:46;12.00;99.90
42743;DHT22;28397;44.552;-0.848;2022-12-20T08:15:14;12.00;99.90
42743;DHT22;28397;44.552;-0.848;2022-12-20T08:17:40;12.00;99.90
42743;DHT22;28397;44.552;-0.848;2022-12-20T08:20:06;12.00;99.90
42743;DHT22;28397;44.552;-0.848;2022-12-20T08:22:33;12.00;99.90
42743;DHT22;28397;44.552;-0.848;2022-12-20T08:24:59;12.00;99.90
42743;DHT22;28397;44.552;-0.848;2022-12-20T08:27:25;12.00;99.90
42743;DHT22;28397;44.552;-0.848;2022-12-20T08:29:50;12.00;99.90
42743;DHT22;28397;44.552;-0.848;2022-12-20T08:32:16;12.00;99.90
42743;DHT22;28397;44.552;-0.848;2022-12-20T08:34:42;12.10;99.90
42743;DHT22;28397;44.552;-0.848;2022-12-20T08:37:07;12.00;99.90
42743;DHT22;28397;44.552;-0.848;2022-12-20T08:39:33;12.00;99.90
42743;DHT22;28397;44.552;-0.848;2022-12-20T08:41:59;12.00;99.90
42743;DHT22;28397;44.552;-0.848;2022-12-20T08:44:25;12.00;99.90
42743;DHT22;28397;44.552;-0.848;2022-12-20T08:46:50;12.00;99.90
42743;DHT22;28397;44.552;-0.848;2022-12-20T08:49:16;11.90;99.90
42743;DHT22;28397;44.552;-0.848;2022-12-20T08:51:42;12.00;99.90
42743;DHT22;28397;44.552;-0.848;2022-12-20T08:54:08;12.00;99.90
42743;DHT22;28397;44.552;-0.848;2022-12-20T08:56:33;12.00;99.90
42743;DHT22;28397;44.552;-0.848;2022-12-20T08:58:59;12.00;99.90
42743;DHT22;28397;44.552;-0.848;2022-12-20T09:01:25;12.10;99.90
42743;DHT22;28397;44.552;-0.848;2022-12-20T09:03:51;12.10;99.90
42743;DHT22;28397;44.552;-0.848;2022-12-20T09:06:19;12.10;99.90
42743;DHT22;28397;44.552;-0.848;2022-12-20T09:08:46;12.20;99.90
42743;DHT22;28397;44.552;-0.848;2022-12-20T09:11:18;12.20;99.90
42743;DHT22;28397;44.552;-0.848;2022-12-20T09:13:47;12.20;99.90
42743;DHT22;28397;44.552;-0.848;2022-12-20T09:16:17;12.30;99.90
42743;DHT22;28397;44.552;-0.848;2022-12-20T09:18:46;12.20;99.90
42743;DHT22;28397;44.552;-0.848;2022-12-20T09:21:15;12.30;99.90
42743;DHT22;28397;44.552;-0.848;2022-12-20T09:23:41;12.30;99.90
42743;DHT22;28397;44.552;-0.848;2022-12-20T09:26:10;12.30;99.90
42743;DHT22;28397;44.552;-0.848;2022-12-20T09:28:36;12.40;99.90
42743;DHT22;28397;44.552;-0.848;2022-12-20T09:31:05;12.30;99.90
42743;DHT22;28397;44.552;-0.848;2022-12-20T09:33:32;12.30;99.90
42743;DHT22;28397;44.552;-0.848;2022-12-20T09:35:59;12.40;99.90
42743;DHT22;28397;44.552;-0.848;2022-12-20T09:38:27;12.40;99.90
42743;DHT22;28397;44.552;-0.848;2022-12-20T09:40:56;12.50;99.90
42743;DHT22;28397;44.552;-0.848;2022-12-20T09:43:23;12.50;99.90
42743;DHT22;28397;44.552;-0.848;2022-12-20T09:45:54;12.50;99.90
42743;DHT22;28397;44.552;-0.848;2022-12-20T09:48:27;12.50;99.90
42743;DHT22;28397;44.552;-0.848;2022-12-20T09:56:43;12.50;99.90
42743;DHT22;28397;44.552;-0.848;2022-12-20T09:59:13;12.50;99.90
42743;DHT22;28397;44.552;-0.848;2022-12-20T10:01:44;12.60;99.90
42743;DHT22;28397;44.552;-0.848;2022-12-20T10:04:25;12.60;99.90
42743;DHT22;28397;44.552;-0.848;2022-12-20T10:23:45;12.80;99.90
42743;DHT22;28397;44.552;-0.848;2022-12-20T10:26:13;12.80;99.90
42743;DHT22;28397;44.552;-0.848;2022-12-20T10:28:39;12.90;99.90
42743;DHT22;28397;44.552;-0.848;2022-12-20T10:31:12;12.90;99.90
42743;DHT22;28397;44.552;-0.848;2022-12-20T10:33:39;12.90;99.90
42743;DHT22;28397;44.552;-0.848;2022-12-20T10:38:48;13.00;99.90
42743;DHT22;28397;44.552;-0.848;2022-12-20T10:41:19;13.00;99.90
42743;DHT22;28397;44.552;-0.848;2022-12-20T10:43:49;13.00;99.90
42743;DHT22;28397;44.552;-0.848;2022-12-20T10:46:17;13.10;99.90
42743;DHT22;28397;44.552;-0.848;2022-12-20T10:48:45;13.10;99.90
42743;DHT22;28397;44.552;-0.848;2022-12-20T10:51:18;13.10;99.90
42743;DHT22;28397;44.552;-0.848;2022-12-20T10:54:02;13.00;99.90
42743;DHT22;28397;44.552;-0.848;2022-12-20T10:56:30;13.00;99.90
42743;DHT22;28397;44.552;-0.848;2022-12-20T10:59:19;13.00;99.90
42743;DHT22;28397;44.552;-0.848;2022-12-20T11:01:46;12.90;99.90
42743;DHT22;28397;44.552;-0.848;2022-12-20T11:04:34;12.90;99.90
42743;DHT22;28397;44.552;-0.848;2022-12-20T11:07:22;12.90;99.90
42743;DHT22;28397;44.552;-0.848;2022-12-20T11:09:54;12.80;99.90
42743;DHT22;28397;44.552;-0.848;2022-12-20T11:12:20;12.80;99.90
42743;DHT22;28397;44.552;-0.848;2022-12-20T11:14:46;12.70;99.90
42743;DHT22;28397;44.552;-0.848;2022-12-20T11:17:16;12.70;99.90
42743;DHT22;28397;44.552;-0.848;2022-12-20T11:28:22;12.60;99.90
42743;DHT22;28397;44.552;-0.848;2022-12-20T11:31:13;12.60;99.90
42743;DHT22;28397;44.552;-0.848;2022-12-20T11:41:42;12.80;99.90
42743;DHT22;28397;44.552;-0.848;2022-12-20T11:44:44;12.80;99.90
42743;DHT22;28397;44.552;-0.848;2022-12-20T11:52:59;13.00;99.90
42743;DHT22;28397;44.552;-0.848;2022-12-20T11:55:30;13.00;99.90
42743;DHT22;28397;44.552;-0.848;2022-12-20T11:58:49;13.00;99.90
42743;DHT22;28397;44.552;-0.848;2022-12-20T12:01:10;13.00;99.90
42743;DHT22;28397;44.552;-0.848;2022-12-20T12:04:01;13.10;99.90
42743;DHT22;28397;44.552;-0.848;2022-12-20T12:06:33;13.10;99.90
42743;DHT22;28397;44.552;-0.848;2022-12-20T12:11:35;13.10;99.90
42743;DHT22;28397;44.552;-0.848;2022-12-20T12:14:03;13.10;99.90
42743;DHT22;28397;44.552;-0.848;2022-12-20T12:16:39;13.20;99.90
42743;DHT22;28397;44.552;-0.848;2022-12-20T12:19:10;13.20;99.90
42743;DHT22;28397;44.552;-0.848;2022-12-20T12:21:50;13.20;99.90
42743;DHT22;28397;44.552;-0.848;2022-12-20T12:24:29;13.30;99.90
42743;DHT22;28397;44.552;-0.848;2022-12-20T12:26:59;13.50;99.90
42743;DHT22;28397;44.552;-0.848;2022-12-20T12:29:28;13.50;99.90
42743;DHT22;28397;44.552;-0.848;2022-12-20T12:32:46;13.40;99.90
42743;DHT22;28397;44.552;-0.848;2022-12-20T12:37:54;13.30;99.90
42743;DHT22;28397;44.552;-0.848;2022-12-20T12:46:07;13.20;99.90
42743;DHT22;28397;44.552;-0.848;2022-12-20T12:48:50;13.30;99.90
42743;DHT22;28397;44.552;-0.848;2022-12-20T12:51:32;13.40;99.90
42743;DHT22;28397;44.552;-0.848;2022-12-20T12:56:43;13.50;99.90
42743;DHT22;28397;44.552;-0.848;2022-12-20T13:05:39;13.60;99.90
42743;DHT22;28397;44.552;-0.848;2022-12-20T13:07:42;13.70;99.90
42743;DHT22;28397;44.552;-0.848;2022-12-20T13:17:49;14.00;99.90
42743;DHT22;28397;44.552;-0.848;2022-12-20T13:20:27;14.10;99.90
42743;DHT22;28397;44.552;-0.848;2022-12-20T13:25:47;14.40;99.90
42743;DHT22;28397;44.552;-0.848;2022-12-20T13:33:42;14.20;99.90
42743;DHT22;28397;44.552;-0.848;2022-12-20T13:41:38;14.30;99.90
42743;DHT22;28397;44.552;-0.848;2022-12-20T13:47:02;14.10;99.90
42743;DHT22;28397;44.552;-0.848;2022-12-20T13:49:40;14.10;99.90
42743;DHT22;28397;44.552;-0.848;2022-12-20T13:54:45;14.10;99.90
42743;DHT22;28397;44.552;-0.848;2022-12-20T13:57:41;14.10;99.90
42743;DHT22;28397;44.552;-0.848;2022-12-20T14:00:15;14.10;99.90
42743;DHT22;28397;44.552;-0.848;2022-12-20T14:02:43;14.10;99.90
42743;DHT22;28397;44.552;-0.848;2022-12-20T14:05:33;14.10;99.90
42743;DHT22;28397;44.552;-0.848;2022-12-20T14:08:21;14.10;99.90
42743;DHT22;28397;44.552;-0.848;2022-12-20T14:10:51;14.10;99.90
42743;DHT22;28397;44.552;-0.848;2022-12-20T14:13:23;14.00;99.90
42743;DHT22;28397;44.552;-0.848;2022-12-20T14:15:50;14.10;99.90
42743;DHT22;28397;44.552;-0.848;2022-12-20T14:18:24;14.10;99.90
42743;DHT22;28397;44.552;-0.848;2022-12-20T14:20:53;14.10;99.90
42743;DHT22;28397;44.552;-0.848;2022-12-20T14:23:26;14.20;99.90
42743;DHT22;28397;44.552;-0.848;2022-12-20T14:25:59;14.20;99.90
42743;DHT22;28397;44.552;-0.848;2022-12-20T14:31:26;14.30;99.90
42743;DHT22;28397;44.552;-0.848;2022-12-20T14:36:27;14.30;99.90
42743;DHT22;28397;44.552;-0.848;2022-12-20T14:38:56;14.20;99.90
42743;DHT22;28397;44.552;-0.848;2022-12-20T14:41:39;14.20;99.90
42743;DHT22;28397;44.552;-0.848;2022-12-20T14:44:21;14.20;99.90
42743;DHT22;28397;44.552;-0.848;2022-12-20T14:46:48;14.10;99.90
42743;DHT22;28397;44.552;-0.848;2022-12-20T14:49:24;14.10;99.90
42743;DHT22;28397;44.552;-0.848;2022-12-20T14:52:02;14.10;99.90
42743;DHT22;28397;44.552;-0.848;2022-12-20T14:54:29;14.10;99.90
42743;DHT22;28397;44.552;-0.848;2022-12-20T14:56:55;14.00;99.90
42743;DHT22;28397;44.552;-0.848;2022-12-20T14:59:26;14.00;99.90
42743;DHT22;28397;44.552;-0.848;2022-12-20T15:01:53;14.00;99.90
42743;DHT22;28397;44.552;-0.848;2022-12-20T15:06:50;13.90;99.90
42743;DHT22;28397;44.552;-0.848;2022-12-20T15:09:17;13.90;99.90
42743;DHT22;28397;44.552;-0.848;2022-12-20T15:11:44;13.80;99.90
42743;DHT22;28397;44.552;-0.848;2022-12-20T15:14:33;13.80;99.90
42743;DHT22;28397;44.552;-0.848;2022-12-20T15:17:11;13.70;99.90
42743;DHT22;28397;44.552;-0.848;2022-12-20T15:19:37;13.70;99.90
42743;DHT22;28397;44.552;-0.848;2022-12-20T15:22:03;13.70;99.90
42743;DHT22;28397;44.552;-0.848;2022-12-20T15:24:29;13.70;99.90
42743;DHT22;28397;44.552;-0.848;2022-12-20T15:26:55;13.60;99.90
42743;DHT22;28397;44.552;-0.848;2022-12-20T15:29:25;13.60;99.90
42743;DHT22;28397;44.552;-0.848;2022-12-20T15:32:06;13.50;99.90
42743;DHT22;28397;44.552;-0.848;2022-12-20T15:34:38;13.50;99.90
42743;DHT22;28397;44.552;-0.848;2022-12-20T15:37:04;13.50;99.90
42743;DHT22;28397;44.552;-0.848;2022-12-20T15:39:31;13.50;99.90
42743;DHT22;28397;44.552;-0.848;2022-12-20T15:41:59;13.50;99.90
42743;DHT22;28397;44.552;-0.848;2022-12-20T15:44:28;13.40;99.90
42743;DHT22;28397;44.552;-0.848;2022-12-20T15:46:54;13.40;99.90
42743;DHT22;28397;44.552;-0.848;2022-12-20T15:49:31;13.30;99.90
42743;DHT22;28397;44.552;-0.848;2022-12-20T15:51:57;13.20;99.90
42743;DHT22;28397;44.552;-0.848;2022-12-20T15:54:26;13.20;99.90
42743;DHT22;28397;44.552;-0.848;2022-12-20T15:56:58;13.20;99.90
42743;DHT22;28397;44.552;-0.848;2022-12-20T15:59:25;13.20;99.90
42743;DHT22;28397;44.552;-0.848;2022-12-20T16:01:51;13.20;99.90
42743;DHT22;28397;44.552;-0.848;2022-12-20T16:04:18;13.20;99.90
42743;DHT22;28397;44.552;-0.848;2022-12-20T16:06:46;13.10;99.90
42743;DHT22;28397;44.552;-0.848;2022-12-20T16:09:12;13.10;99.90
42743;DHT22;28397;44.552;-0.848;2022-12-20T16:11:38;13.20;99.90
42743;DHT22;28397;44.552;-0.848;2022-12-20T16:14:04;13.20;99.90
42743;DHT22;28397;44.552;-0.848;2022-12-20T16:16:33;13.10;99.90
42743;DHT22;28397;44.552;-0.848;2022-12-20T16:18:59;13.20;99.90
42743;DHT22;28397;44.552;-0.848;2022-12-20T16:21:42;13.10;99.90
42743;DHT22;28397;44.552;-0.848;2022-12-20T16:24:12;13.10;99.90
42743;DHT22;28397;44.552;-0.848;2022-12-20T16:26:38;13.00;99.90
42743;DHT22;28397;44.552;-0.848;2022-12-20T16:29:03;13.00;99.90
42743;DHT22;28397;44.552;-0.848;2022-12-20T16:31:35;13.00;99.90
42743;DHT22;28397;44.552;-0.848;2022-12-20T16:34:03;13.00;99.90
42743;DHT22;28397;44.552;-0.848;2022-12-20T16:36:30;12.90;99.90
42743;DHT22;28397;44.552;-0.848;2022-12-20T16:38:56;12.90;99.90
42743;DHT22;28397;44.552;-0.848;2022-12-20T16:41:25;12.90;99.90
42743;DHT22;28397;44.552;-0.848;2022-12-20T16:43:53;12.90;99.90
42743;DHT22;28397;44.552;-0.848;2022-12-20T16:46:21;12.90;99.90
42743;DHT22;28397;44.552;-0.848;2022-12-20T16:48:47;12.90;99.90
42743;DHT22;28397;44.552;-0.848;2022-12-20T16:51:31;12.80;99.90
42743;DHT22;28397;44.552;-0.848;2022-12-20T16:54:02;12.80;99.90
42743;DHT22;28397;44.552;-0.848;2022-12-20T16:56:29;12.80;99.90
42743;DHT22;28397;44.552;-0.848;2022-12-20T16:58:55;12.80;99.90
42743;DHT22;28397;44.552;-0.848;2022-12-20T17:01:26;12.80;99.90
42743;DHT22;28397;44.552;-0.848;2022-12-20T17:03:53;12.90;99.90
42743;DHT22;28397;44.552;-0.848;2022-12-20T17:06:19;12.90;99.90
42743;DHT22;28397;44.552;-0.848;2022-12-20T17:08:46;12.80;99.90
42743;DHT22;28397;44.552;-0.848;2022-12-20T17:13:42;12.80;99.90
42743;DHT22;28397;44.552;-0.848;2022-12-20T17:16:12;12.80;99.90
42743;DHT22;28397;44.552;-0.848;2022-12-20T17:18:43;12.80;99.90
42743;DHT22;28397;44.552;-0.848;2022-12-20T17:23:44;12.70;99.90
42743;DHT22;28397;44.552;-0.848;2022-12-20T17:26:22;12.70;99.90
42743;DHT22;28397;44.552;-0.848;2022-12-20T17:28:49;12.70;99.90
42743;DHT22;28397;44.552;-0.848;2022-12-20T17:31:24;12.70;99.90
42743;DHT22;28397;44.552;-0.848;2022-12-20T17:33:50;12.70;99.90